Time;durP1;ratioP1;P1;durP2;ratioP2;P2;SDS_P1;SDS_P2;PMS_P1;PMS_P2;Temp;Humidity;BMP_temperature;BMP_pressure;BME280_temperature;BME280_humidity;BME280_pressure;Samples;Min_cycle;Max_cycle;Signal;HPM_P1;HPM_P2
2023/10/05 00:04:17;;;;;;;1.85;0.90;;;;;;;12.01;78.07;151698.50;10496035;28;20053;-77
2023/10/05 00:09:20;;;;;;;3.63;1.92;;;;;;;11.97;77.96;151688.16;10497189;28;20063;-76
2023/10/05 00:14:24;;;;;;;8.65;1.27;;;;;;;11.95;77.43;151682.97;10497947;28;20037;-76
2023/10/05 00:19:29;;;;;;;3.10;1.20;;;;;;;11.98;77.70;151690.75;10495087;28;20127;-75
2023/10/05 00:24:37;;;;;;;3.33;1.40;;;;;;;11.96;78.07;151685.59;10496430;28;20033;-76
2023/10/05 00:29:49;;;;;;;2.58;1.13;;;;;;;11.93;77.87;151676.53;10496915;28;20109;-77
2023/10/05 00:34:52;;;;;;;1.92;0.90;;;;;;;11.91;77.91;151671.34;10480737;28;20102;-77
2023/10/05 00:39:56;;;;;;;1.40;0.90;;;;;;;11.94;77.37;151680.41;10499045;28;20041;-76
2023/10/05 00:45:01;;;;;;;2.55;1.27;;;;;;;11.91;77.04;151671.34;10495386;28;20071;-77
2023/10/05 00:50:04;;;;;;;2.60;1.13;;;;;;;11.97;76.69;151688.16;10495243;28;20124;-74
2023/10/05 00:55:16;;;;;;;3.20;1.35;;;;;;;12.00;76.83;151694.66;10496127;28;20447;-75
2023/10/05 01:00:27;;;;;;;3.95;1.60;;;;;;;11.99;76.70;151692.03;10494256;28;20401;-75
2023/10/05 01:05:35;;;;;;;3.30;1.45;;;;;;;11.96;76.79;151684.31;10492359;28;20045;-76
2023/10/05 01:10:42;;;;;;;2.20;1.15;;;;;;;11.87;77.57;151662.34;10463946;28;20051;-75
2023/10/05 01:15:47;;;;;;;2.03;1.33;;;;;;;11.92;77.05;151675.25;10464675;28;20041;-76
2023/10/05 01:20:50;;;;;;;3.58;1.08;;;;;;;11.92;77.10;151673.97;10466807;28;20049;-75
2023/10/05 01:25:51;;;;;;;3.20;1.50;;;;;;;11.93;77.47;151676.53;10465918;28;20063;-75
2023/10/05 01:30:55;;;;;;;2.80;1.33;;;;;;;11.86;77.82;151659.72;10464152;28;20071;-75
2023/10/05 01:35:58;;;;;;;2.40;1.33;;;;;;;11.98;77.12;151690.75;10463673;28;20128;-75
2023/10/05 01:41:02;;;;;;;1.90;1.10;;;;;;;11.96;76.99;151684.31;10466278;28;20053;-75
2023/10/05 01:46:04;;;;;;;3.72;1.65;;;;;;;11.95;77.22;151682.97;10463156;28;20064;-75
2023/10/05 01:51:13;;;;;;;2.53;1.20;;;;;;;11.90;77.39;151668.78;10463987;28;20095;-76
2023/10/05 01:56:20;;;;;;;2.40;1.52;;;;;;;11.91;77.19;151671.34;10464266;28;20554;-76
2023/10/05 02:01:24;;;;;;;3.17;1.70;;;;;;;11.80;78.07;151644.19;10466719;28;20045;-76
2023/10/05 02:06:28;;;;;;;3.13;1.85;;;;;;;11.84;77.78;151654.56;10462660;28;20051;-75
2023/10/05 02:11:30;;;;;;;3.08;1.52;;;;;;;11.77;78.06;151636.41;10462541;28;20041;-75
2023/10/05 02:16:33;;;;;;;1.85;1.10;;;;;;;11.80;78.19;151645.47;10462530;28;20053;-75
2023/10/05 02:21:36;;;;;;;2.70;1.55;;;;;;;11.83;77.67;151653.28;10445767;28;20052;-75
2023/10/05 02:37:10;;;;;;;3.53;1.83;;;;;;;11.74;78.52;151629.97;10423921;28;20468;-75
2023/10/05 02:42:13;;;;;;;5.75;1.65;;;;;;;11.74;78.94;151629.97;10421946;28;20418;-75
2023/10/05 02:47:23;;;;;;;3.05;1.80;;;;;;;11.80;78.63;151644.19;10425965;28;20037;-75
2023/10/05 02:52:26;;;;;;;3.97;1.73;;;;;;;11.73;79.10;151627.41;10423551;28;20049;-75
2023/10/05 02:57:28;;;;;;;5.00;1.67;;;;;;;11.69;79.54;151615.78;10420005;28;20053;-75
2023/10/05 03:02:37;;;;;;;3.47;1.45;;;;;;;11.74;78.76;151628.69;10422137;28;20057;-76
2023/10/05 03:07:41;;;;;;;2.13;1.33;;;;;;;11.69;78.95;151617.06;10424005;28;20156;-76
2023/10/05 03:12:43;;;;;;;2.63;1.40;;;;;;;11.73;78.77;151626.06;10421145;28;20045;-76
2023/10/05 03:17:46;;;;;;;2.15;1.50;;;;;;;11.74;78.43;151628.69;10419517;28;20132;-75
2023/10/05 03:22:49;;;;;;;4.95;1.88;;;;;;;11.77;78.00;151636.41;10419810;28;20041;-75
2023/10/05 03:27:55;;;;;;;5.20;1.63;;;;;;;11.71;78.66;151620.91;10405586;28;20068;-76
2023/10/05 03:33:00;;;;;;;2.88;1.58;;;;;;;11.65;78.79;151606.72;10419273;28;20065;-77
2023/10/05 03:38:08;;;;;;;2.95;1.50;;;;;;;11.71;78.33;151620.91;10420895;28;20042;-76
2023/10/05 03:43:11;;;;;;;;;;;;;;;11.69;78.52;151615.78;10405935;28;20107;-76
2023/10/05 03:48:16;;;;;;;3.03;1.25;;;;;;;11.62;78.83;151600.22;10423488;28;20281;-76
2023/10/05 03:53:19;;;;;;;2.92;1.70;;;;;;;11.63;78.66;151602.81;10409263;28;20463;-76
2023/10/05 03:58:21;;;;;;;3.08;1.67;;;;;;;11.72;78.43;151623.50;10407535;28;20458;-76
2023/10/05 04:03:25;;;;;;;2.35;1.35;;;;;;;11.55;79.51;151582.19;10420824;28;20136;-76
2023/10/05 04:08:28;;;;;;;3.92;1.73;;;;;;;11.50;79.60;151569.22;10403628;28;20571;-76
2023/10/05 04:13:32;;;;;;;3.40;1.50;;;;;;;11.60;79.73;151595.09;10422834;28;20116;-76
2023/10/05 04:18:34;;;;;;;3.83;1.70;;;;;;;11.60;79.67;151593.81;10420022;28;20494;-76
2023/10/05 04:23:36;;;;;;;5.03;2.53;;;;;;;11.55;79.88;151582.19;10419239;28;20042;-76
2023/10/05 04:28:41;;;;;;;4.93;1.63;;;;;;;11.63;79.88;151601.53;10419952;28;20064;-76
2023/10/05 04:33:43;;;;;;;2.80;1.58;;;;;;;11.60;80.08;151595.09;10424237;28;20052;-76
2023/10/05 04:38:46;;;;;;;2.85;1.65;;;;;;;11.65;79.61;151605.44;10419955;28;20474;-76
2023/10/05 04:43:49;;;;;;;3.65;1.83;;;;;;;11.47;80.72;151561.50;10424608;28;20041;-76
2023/10/05 04:49:07;;;;;;;4.10;1.35;;;;;;;11.54;80.63;151578.25;10429115;28;20041;-78
2023/10/05 04:54:11;;;;;;;5.65;1.95;;;;;;;11.45;81.15;151555.00;10430652;28;20026;-76
2023/10/05 05:09:44;;;;;;;4.00;2.55;;;;;;;11.62;80.51;151598.94;10508707;28;20497;-76
2023/10/05 05:14:53;;;;;;;5.53;2.13;;;;;;;11.69;80.47;151617.06;10508550;28;20070;-75
2023/10/05 05:19:57;;;;;;;3.80;1.75;;;;;;;11.74;80.15;151629.97;10510675;28;20037;-76
2023/10/05 05:24:59;;;;;;;3.25;1.90;;;;;;;11.78;79.92;151639.03;10507557;28;20408;-76
2023/10/05 05:30:03;;;;;;;4.70;1.88;;;;;;;11.83;79.69;151652.00;10473714;28;20508;-76
2023/10/05 05:35:08;;;;;;;5.35;2.05;;;;;;;11.90;79.76;151668.78;10507223;28;20036;-75
2023/10/05 05:40:12;;;;;;;4.53;2.15;;;;;;;11.98;78.91;151689.47;10492376;28;20047;-76
2023/10/05 05:45:18;;;;;;;4.90;2.40;;;;;;;12.12;78.27;151726.94;10487451;28;20102;-75
2023/10/05 05:50:23;;;;;;;4.87;2.33;;;;;;;12.22;77.49;151751.53;10507664;28;20048;-76
2023/10/05 05:55:25;;;;;;;3.70;1.98;;;;;;;12.35;77.08;151783.81;10488116;28;20120;-76
2023/10/05 06:00:28;;;;;;;3.67;1.80;;;;;;;12.35;77.51;151785.16;10509772;28;20408;-76
2023/10/05 06:05:30;;;;;;;5.10;2.33;;;;;;;12.47;77.05;151814.84;10486606;28;20037;-75
2023/10/05 06:10:34;;;;;;;4.57;1.77;;;;;;;12.59;76.61;151844.59;10485944;28;20412;-75
2023/10/05 06:15:37;;;;;;;3.58;2.20;;;;;;;12.68;76.45;151867.88;10485655;28;20037;-75
2023/10/05 06:20:38;;;;;;;5.10;2.33;;;;;;;12.84;75.86;151909.28;10487231;28;20502;-75
2023/10/05 06:25:40;;;;;;;4.78;2.47;;;;;;;12.87;75.46;151917.00;10490092;28;20045;-75
2023/10/05 06:30:42;;;;;;;4.75;2.55;;;;;;;12.83;76.84;151906.66;10486857;28;20045;-75
2023/10/05 06:35:45;;;;;;;3.83;1.92;;;;;;;12.99;76.00;151945.50;10486589;28;20412;-75
2023/10/05 06:40:47;;;;;;;4.10;2.08;;;;;;;12.98;76.37;151942.91;10503192;28;20071;-75
2023/10/05 06:45:49;;;;;;;4.43;1.60;;;;;;;12.94;77.62;151933.84;10505885;28;20549;-75
2023/10/05 06:50:52;;;;;;;4.18;1.92;;;;;;;13.22;75.05;152003.69;10502485;28;20068;-75
2023/10/05 06:55:54;;;;;;;3.65;1.45;;;;;;;13.38;75.11;152046.44;10503058;28;20032;-76
2023/10/05 07:00:56;;;;;;;5.10;2.75;;;;;;;13.44;74.33;152060.66;10502236;28;20041;-75
2023/10/05 07:05:57;;;;;;;4.63;1.80;;;;;;;13.57;73.79;152093.03;10488221;28;20048;-74
2023/10/05 07:11:00;;;;;;;4.68;2.30;;;;;;;13.60;74.18;152102.09;10502613;28;20036;-74
2023/10/05 07:16:02;;;;;;;5.25;2.03;;;;;;;13.74;72.82;152135.72;10501074;28;20040;-74
2023/10/05 07:21:04;;;;;;;5.32;2.17;;;;;;;13.89;72.64;152175.81;10483940;28;20415;-75
2023/10/05 07:26:07;;;;;;;4.03;1.90;;;;;;;14.11;71.03;152230.19;10502749;28;20041;-75
2023/10/05 07:31:09;;;;;;;4.88;1.60;;;;;;;14.08;70.86;152223.75;10484795;28;20059;-75
2023/10/05 07:36:13;;;;;;;5.13;2.40;;;;;;;14.10;71.09;152228.91;10501779;28;20450;-75
2023/10/05 07:41:16;;;;;;;4.35;1.48;;;;;;;14.20;71.03;152253.50;10501828;28;20044;-75
2023/10/05 07:46:18;;;;;;;3.53;1.83;;;;;;;14.32;70.63;152283.28;10501199;28;20052;-75
2023/10/05 07:51:20;;;;;;;3.30;1.77;;;;;;;14.39;70.46;152302.72;10485441;28;20046;-74
2023/10/05 07:56:22;;;;;;;3.72;1.67;;;;;;;14.41;70.93;152305.31;10499321;28;20041;-75
2023/10/05 08:01:25;;;;;;;3.33;1.35;;;;;;;14.42;72.33;152309.19;10482872;28;20564;-75
2023/10/05 08:06:29;;;;;;;2.33;1.33;;;;;;;14.65;68.83;152367.50;10482349;28;20040;-74
2023/10/05 08:11:31;;;;;;;2.90;1.27;;;;;;;14.68;69.10;152373.97;10501740;28;20044;-74
2023/10/05 08:16:34;;;;;;;4.68;1.70;;;;;;;14.56;68.12;152344.19;10483798;28;20064;-74
2023/10/05 08:21:36;;;;;;;2.67;1.77;;;;;;;14.55;69.51;152342.91;10491164;28;20083;-75
2023/10/05 08:26:39;;;;;;;3.30;1.48;;;;;;;14.56;70.21;152345.47;10508862;28;20102;-74
2023/10/05 08:31:44;;;;;;;3.72;1.27;;;;;;;14.58;69.06;152349.38;10509562;28;20140;-74
2023/10/05 08:36:53;;;;;;;2.80;1.20;;;;;;;14.55;69.24;152342.91;10508383;28;20448;-74
2023/10/05 08:41:55;;;;;;;3.65;1.30;;;;;;;14.66;70.01;152368.84;10508679;28;20124;-74
2023/10/05 08:47:00;;;;;;;2.88;1.38;;;;;;;14.80;69.65;152405.06;10489633;28;20036;-74
2023/10/05 08:52:12;;;;;;;2.33;1.20;;;;;;;14.93;68.28;152438.75;10508499;28;20047;-73
2023/10/05 08:57:16;;;;;;;2.75;1.17;;;;;;;15.23;67.08;152515.19;10492631;28;20037;-73
2023/10/05 09:02:21;;;;;;;3.22;1.17;;;;;;;15.26;66.28;152522.94;10509384;28;20048;-74
2023/10/05 09:07:34;;;;;;;3.00;1.27;;;;;;;15.21;66.94;152508.69;10489233;28;20043;-74
2023/10/05 09:12:40;;;;;;;2.35;1.00;;;;;;;15.19;66.95;152503.53;10489396;28;20094;-75
2023/10/05 09:17:55;;;;;;;2.58;1.13;;;;;;;15.25;66.27;152519.06;10491346;28;20043;-74
2023/10/05 09:23:01;;;;;;;2.78;1.23;;;;;;;15.23;66.04;152515.19;10488879;28;20122;-74
2023/10/05 09:28:13;;;;;;;1.73;0.90;;;;;;;15.23;67.37;152513.84;10489003;28;20064;-74
2023/10/05 09:33:18;;;;;;;2.90;0.88;;;;;;;15.81;63.35;152661.69;10508549;28;20321;-74
2023/10/05 09:38:24;;;;;;;3.22;0.73;;;;;;;16.18;62.29;152755.00;10511246;28;20066;-74
2023/10/05 09:43:32;;;;;;;2.37;1.00;;;;;;;16.35;62.00;152799.09;10489079;28;20045;-73
2023/10/05 09:48:37;;;;;;;1.63;0.95;;;;;;;16.81;60.21;152915.81;10505337;28;20040;-73
2023/10/05 09:53:43;;;;;;;1.45;0.85;;;;;;;16.53;61.84;152845.75;10487380;28;20139;-73
2023/10/05 09:58:45;;;;;;;3.25;1.25;;;;;;;16.33;62.75;152795.16;10488659;28;20048;-74
2023/10/05 10:03:52;;;;;;;3.10;1.20;;;;;;;16.76;61.08;152904.16;10506050;28;20048;-73
2023/10/05 10:09:08;;;;;;;1.83;0.80;;;;;;;16.98;62.12;152959.94;10503846;28;20036;-74
2023/10/05 10:14:20;;;;;;;1.00;0.68;;;;;;;17.22;60.70;153019.59;10485753;28;20047;-74
2023/10/05 10:19:23;;;;;;;2.50;0.93;;;;;;;16.97;58.97;152957.34;10503815;28;20040;-75
2023/10/05 10:24:29;;;;;;;1.95;0.70;;;;;;;16.48;59.35;152832.78;10506974;28;20037;-74
2023/10/05 10:29:51;;;;;;;1.58;0.80;;;;;;;16.59;59.95;152861.31;10504260;28;20049;-73
2023/10/05 10:34:55;;;;;;;2.15;0.95;;;;;;;16.60;58.90;152863.94;10485316;28;20093;-71
2023/10/05 10:39:57;;;;;;;1.67;0.90;;;;;;;16.61;60.13;152866.50;10502389;28;20036;-72
2023/10/05 10:44:59;;;;;;;2.80;0.90;;;;;;;16.69;59.24;152884.63;10504397;28;20053;-72
2023/10/05 10:50:15;;;;;;;4.93;1.05;;;;;;;16.72;58.10;152893.78;10503428;28;20051;-72
2023/10/05 10:55:20;;;;;;;2.30;0.85;;;;;;;17.03;57.65;152972.91;10535627;28;20500;-72
2023/10/05 11:00:54;;;;;;;2.42;1.02;;;;;;;17.08;57.25;152984.56;10556402;28;20036;-72
2023/10/05 11:06:03;;;;;;;1.90;0.65;;;;;;;17.39;58.14;153063.72;10503724;28;20051;-71
2023/10/05 11:11:09;;;;;;;2.45;0.75;;;;;;;17.24;56.47;153026.09;10485314;28;20048;-72
2023/10/05 11:16:15;;;;;;;1.45;0.60;;;;;;;17.05;57.24;152978.13;10502547;28;20040;-71
2023/10/05 11:21:23;;;;;;;3.17;1.17;;;;;;;16.88;57.34;152934.00;10483572;28;20101;-72
2023/10/05 11:31:51;;;;;;;1.23;0.60;;;;;;;16.82;57.66;152919.75;10502152;28;20120;-72
2023/10/05 11:37:18;;;;;;;1.77;0.70;;;;;;;16.92;56.31;152944.38;10485797;28;20051;-72
2023/10/05 11:42:33;;;;;;;1.52;0.63;;;;;;;16.97;56.63;152957.34;10501541;28;20132;-72
2023/10/05 11:47:35;;;;;;;1.73;0.77;;;;;;;17.14;56.25;153000.16;10500703;28;20082;-72
2023/10/05 11:52:38;;;;;;;1.45;0.77;;;;;;;17.28;55.85;153035.19;10501489;28;20044;-72
2023/10/05 11:57:40;;;;;;;1.48;0.70;;;;;;;17.36;55.51;153057.25;10500242;28;20041;-72
2023/10/05 12:02:45;;;;;;;1.13;0.60;;;;;;;17.44;55.68;153075.38;10500083;28;20053;-71
2023/10/05 12:07:48;;;;;;;1.20;0.50;;;;;;;17.44;54.25;153076.69;10482390;28;20488;-72
2023/10/05 12:12:50;;;;;;;1.95;1.05;;;;;;;17.25;55.83;153027.41;10502365;28;20040;-71
2023/10/05 12:17:52;;;;;;;2.03;0.70;;;;;;;17.19;55.71;153013.13;10499890;28;20488;-71
2023/10/05 12:22:56;;;;;;;1.75;0.70;;;;;;;17.15;56.23;153002.75;10499023;28;20178;-72
2023/10/05 12:27:58;;;;;;;1.92;0.60;;;;;;;17.06;56.69;152980.69;10480957;28;20446;-72
2023/10/05 12:33:00;;;;;;;1.80;0.77;;;;;;;17.12;56.39;152996.25;10499978;28;20040;-71
2023/10/05 12:38:06;;;;;;;1.42;0.85;;;;;;;17.15;56.31;153004.03;10499721;28;20039;-71
2023/10/05 12:43:10;;;;;;;1.63;0.70;;;;;;;17.17;56.17;153006.63;10499475;28;20123;-72
2023/10/05 12:48:19;;;;;;;1.08;0.60;;;;;;;17.00;57.39;152965.16;10499797;28;20116;-72
2023/10/05 12:53:22;;;;;;;1.70;0.82;;;;;;;17.14;57.36;153000.16;10481435;28;20473;-72
2023/10/05 12:58:24;;;;;;;1.33;0.68;;;;;;;17.11;57.69;152992.38;10480669;28;20062;-73
2023/10/05 13:03:28;;;;;;;2.42;0.88;;;;;;;17.21;56.60;153018.31;10501059;28;20044;-72
2023/10/05 13:08:30;;;;;;;2.25;1.00;;;;;;;17.23;56.23;153023.53;10506604;28;20045;-72
2023/10/05 13:13:35;;;;;;;3.35;0.80;;;;;;;17.29;55.87;153037.78;10487880;28;20068;-72
2023/10/05 13:18:38;;;;;;;1.23;0.80;;;;;;;17.33;55.04;153048.16;10472714;28;20135;-72
2023/10/05 13:23:40;;;;;;;3.83;0.80;;;;;;;17.35;55.02;153053.31;10505952;28;20120;-72
2023/10/05 13:28:42;;;;;;;1.20;0.70;;;;;;;17.46;56.04;153080.59;10505123;28;20044;-72
2023/10/05 13:33:47;;;;;;;1.95;0.60;;;;;;;17.45;55.60;153078.03;10505454;28;20083;-73
2023/10/05 13:38:51;;;;;;;1.25;0.50;;;;;;;17.45;54.28;153079.31;10489778;28;20040;-72
2023/10/05 13:43:53;;;;;;;1.17;0.50;;;;;;;17.19;55.71;153013.13;10505328;28;20055;-72
2023/10/05 13:48:55;;;;;;;1.63;1.00;;;;;;;17.06;54.98;152979.41;10504458;28;20060;-71
2023/10/05 13:53:57;;;;;;;2.60;0.65;;;;;;;16.99;54.88;152961.22;10504866;28;20048;-72
2023/10/05 13:59:02;;;;;;;1.25;0.60;;;;;;;17.00;54.46;152965.16;10487071;28;20047;-72
2023/10/05 14:04:06;;;;;;;1.42;0.52;;;;;;;17.04;54.15;152975.47;10485938;28;20155;-72
2023/10/05 14:09:10;;;;;;;1.75;0.85;;;;;;;17.03;55.01;152972.91;10505104;28;20507;-72
2023/10/05 14:14:12;;;;;;;3.90;0.80;;;;;;;16.97;56.43;152956.06;10504484;28;20106;-72
2023/10/05 14:19:14;;;;;;;0.85;0.60;;;;;;;16.80;57.71;152913.25;10504346;28;20037;-72
2023/10/05 14:24:17;;;;;;;1.65;0.70;;;;;;;16.82;56.65;152919.75;10505213;28;20043;-71
2023/10/05 14:29:23;;;;;;;2.28;0.95;;;;;;;16.69;57.03;152884.63;10486978;28;20036;-72
2023/10/05 14:34:26;;;;;;;0.95;0.60;;;;;;;16.83;56.79;152922.34;10503557;28;20386;-71
2023/10/05 14:39:36;;;;;;;1.73;0.80;;;;;;;16.88;55.98;152935.28;10502840;28;20067;-72
2023/10/05 14:44:40;;;;;;;1.35;0.82;;;;;;;16.83;56.39;152921.03;10505558;28;20109;-72
2023/10/05 14:49:42;;;;;;;3.75;1.15;;;;;;;16.75;57.82;152901.56;10485753;28;20048;-72
2023/10/05 14:54:44;;;;;;;1.90;0.80;;;;;;;16.87;56.86;152931.44;10503202;28;20051;-72
2023/10/05 14:59:46;;;;;;;1.92;1.00;;;;;;;16.97;56.72;152956.06;10487411;28;20041;-72
2023/10/05 15:04:48;;;;;;;2.33;1.17;;;;;;;17.01;56.74;152967.72;10486258;28;20044;-72
2023/10/05 15:09:50;;;;;;;1.73;0.80;;;;;;;16.97;58.03;152957.34;10484676;28;20042;-72
2023/10/05 15:14:52;;;;;;;1.83;1.00;;;;;;;17.07;57.66;152983.28;10528210;28;20381;-72
2023/10/05 15:19:54;;;;;;;1.60;1.02;;;;;;;16.91;58.34;152941.81;10544765;28;20036;-71
2023/10/05 15:24:56;;;;;;;3.42;1.40;;;;;;;16.91;58.37;152941.81;10543646;28;20067;-71
2023/10/05 15:29:57;;;;;;;2.65;1.15;;;;;;;16.93;58.64;152946.97;10524680;28;20105;-71
2023/10/05 15:34:59;;;;;;;1.90;0.90;;;;;;;16.85;59.70;152927.50;10506993;28;20048;-71
2023/10/05 15:40:02;;;;;;;2.17;0.90;;;;;;;16.86;59.28;152930.09;10522747;28;20047;-71
2023/10/05 15:45:09;;;;;;;2.03;1.15;;;;;;;16.67;59.55;152880.75;10506462;28;20063;-71
2023/10/05 15:50:20;;;;;;;1.08;0.70;;;;;;;16.60;59.26;152862.59;10524103;28;20043;-71
2023/10/05 15:55:24;;;;;;;1.42;0.90;;;;;;;16.51;59.64;152839.25;10540501;28;20527;-72
2023/10/05 16:00:27;;;;;;;3.45;1.02;;;;;;;16.39;60.25;152810.75;10540569;28;20059;-72
2023/10/05 16:05:34;;;;;;;2.03;0.80;;;;;;;16.23;61.40;152767.97;10522914;28;20048;-72
2023/10/05 16:10:40;;;;;;;4.53;0.60;;;;;;;16.32;61.04;152791.28;10524255;28;20036;-72
2023/10/05 16:15:42;;;;;;;1.70;0.85;;;;;;;16.24;61.26;152771.81;10522726;28;20239;-71
2023/10/05 16:20:44;;;;;;;1.67;0.90;;;;;;;16.18;61.55;152755.00;10540269;28;20036;-71
2023/10/05 16:25:46;;;;;;;3.15;1.08;;;;;;;16.13;61.84;152743.31;10523809;28;20484;-72
2023/10/05 16:30:49;;;;;;;1.52;0.90;;;;;;;16.01;62.81;152712.22;10523934;28;20043;-72
2023/10/05 16:35:51;;;;;;;1.77;0.85;;;;;;;16.07;62.32;152727.75;10542328;28;20063;-72
2023/10/05 16:40:56;;;;;;;2.03;1.00;;;;;;;15.96;62.88;152699.25;10528804;28;20523;-71
2023/10/05 16:45:58;;;;;;;1.42;0.85;;;;;;;15.93;62.96;152691.47;10530697;28;20427;-72
2023/10/05 16:51:04;;;;;;;2.13;0.90;;;;;;;15.89;63.71;152683.72;10547685;28;20042;-72
2023/10/05 16:56:07;;;;;;;1.55;0.80;;;;;;;15.89;63.33;152682.38;10514013;28;20051;-72
2023/10/05 17:01:09;;;;;;;1.58;0.68;;;;;;;15.77;63.61;152651.31;10547413;28;20127;-72
2023/10/05 17:06:11;;;;;;;1.10;0.75;;;;;;;15.78;63.35;152655.19;10548467;28;20039;-72
2023/10/05 17:11:13;;;;;;;1.63;1.00;;;;;;;15.73;63.40;152640.94;10548812;28;20438;-72
2023/10/05 17:16:15;;;;;;;2.05;1.15;;;;;;;15.62;63.89;152614.94;10547836;28;20040;-72
2023/10/05 17:21:17;;;;;;;2.38;1.02;;;;;;;15.55;64.12;152595.53;10547596;28;20086;-72
2023/10/05 17:26:19;;;;;;;1.27;0.93;;;;;;;15.56;63.99;152599.41;10529473;28;20044;-71
2023/10/05 17:31:21;;;;;;;2.30;1.10;;;;;;;15.62;64.07;152613.63;10547518;28;20032;-71
2023/10/05 17:36:25;;;;;;;1.95;1.00;;;;;;;15.62;63.71;152614.94;10550775;28;20044;-72
2023/10/05 17:41:28;;;;;;;2.00;1.00;;;;;;;15.56;63.90;152599.41;10515928;28;20048;-72
2023/10/05 17:46:30;;;;;;;2.38;1.10;;;;;;;15.70;63.39;152633.16;10548257;28;20059;-72
2023/10/05 17:51:33;;;;;;;2.35;1.15;;;;;;;15.66;63.22;152622.78;10530892;28;20047;-72
2023/10/05 17:56:35;;;;;;;2.00;0.80;;;;;;;15.63;63.06;152617.56;10513409;28;20079;-71
2023/10/05 18:01:37;;;;;;;1.90;1.08;;;;;;;15.63;63.59;152617.56;10555896;28;20046;-73
2023/10/05 18:06:42;;;;;;;1.90;1.00;;;;;;;15.53;64.03;152591.59;10557544;28;20070;-72
2023/10/05 18:11:46;;;;;;;2.17;0.95;;;;;;;15.71;63.06;152635.72;10564151;28;20040;-73
2023/10/05 18:16:51;;;;;;;2.05;1.00;;;;;;;15.59;64.13;152607.19;10571309;28;20511;-72
2023/10/05 18:21:54;;;;;;;1.40;0.90;;;;;;;15.58;63.86;152604.59;10530035;28;20066;-71
2023/10/05 18:26:56;;;;;;;2.10;0.90;;;;;;;15.45;64.35;152569.56;10527495;28;20109;-72
2023/10/05 18:31:58;;;;;;;1.38;1.05;;;;;;;15.32;65.51;152538.53;10544007;28;20048;-71
2023/10/05 18:37:03;;;;;;;2.15;0.90;;;;;;;15.39;64.91;152556.63;10525356;28;20048;-72
2023/10/05 18:42:05;;;;;;;3.08;1.40;;;;;;;15.46;65.03;152572.22;10546541;28;20036;-73
2023/10/05 18:47:10;;;;;;;2.20;1.00;;;;;;;15.50;64.46;152582.56;10546011;28;20074;-74
2023/10/05 18:52:13;;;;;;;1.13;0.80;;;;;;;15.52;64.35;152587.75;10546345;28;20388;-73
2023/10/05 18:57:15;;;;;;;2.05;0.90;;;;;;;15.42;64.94;152563.13;10525397;28;20044;-73
2023/10/05 19:02:17;;;;;;;1.42;1.00;;;;;;;15.34;65.46;152543.69;10508024;28;20116;-74
2023/10/05 19:07:19;;;;;;;2.00;0.80;;;;;;;15.32;65.40;152538.53;10546303;28;20036;-72
2023/10/05 19:12:23;;;;;;;1.38;1.00;;;;;;;15.39;65.67;152555.34;10525533;28;20408;-74
2023/10/05 19:17:26;;;;;;;2.70;1.13;;;;;;;15.40;65.44;152557.91;10536036;28;20044;-73
2023/10/05 19:22:28;;;;;;;1.40;0.80;;;;;;;15.32;65.75;152537.22;10543279;28;20078;-73
2023/10/05 19:27:32;;;;;;;2.03;0.93;;;;;;;15.14;66.52;152491.88;10544347;28;20091;-73
2023/10/05 19:32:34;;;;;;;2.60;1.00;;;;;;;15.23;66.27;152515.19;10543742;28;20040;-74
2023/10/05 19:37:36;;;;;;;3.25;1.08;;;;;;;15.10;66.96;152482.81;10541405;28;20083;-73
2023/10/05 19:42:38;;;;;;;2.35;1.17;;;;;;;15.13;66.86;152489.25;10544334;28;20040;-74
2023/10/05 19:47:40;;;;;;;2.22;1.27;;;;;;;15.10;66.81;152481.50;10544997;28;20036;-73
2023/10/05 19:52:42;;;;;;;1.90;0.85;;;;;;;15.24;66.84;152516.50;10541982;28;20044;-73
2023/10/05 19:57:44;;;;;;;1.02;0.80;;;;;;;14.99;67.84;152453.00;10546021;28;20438;-73
2023/10/05 20:02:46;;;;;;;2.25;1.00;;;;;;;14.90;70.52;152430.97;10541596;28;20106;-73
2023/10/05 20:07:56;;;;;;;2.22;0.88;;;;;;;14.73;74.32;152386.94;10542163;28;20032;-74
2023/10/05 20:12:58;;;;;;;1.98;1.15;;;;;;;14.35;80.40;152291.09;10549732;28;20048;-73
2023/10/05 20:18:03;;;;;;;1.88;1.45;;;;;;;14.32;82.08;152284.59;10556333;28;20397;-73
2023/10/05 20:23:05;;;;;;;3.85;1.35;;;;;;;14.34;81.23;152289.78;10558783;28;20143;-73
2023/10/05 20:28:13;;;;;;;1.90;1.17;;;;;;;14.24;81.66;152262.56;10556228;28;20039;-74
2023/10/05 20:33:15;;;;;;;1.30;0.93;;;;;;;14.14;81.47;152239.28;10555236;28;20127;-72
2023/10/05 20:38:17;;;;;;;5.68;1.20;;;;;;;14.19;81.70;152249.63;10552506;28;20036;-73
2023/10/05 20:43:19;;;;;;;2.38;1.25;;;;;;;14.18;79.80;152247.06;10549878;28;20036;-73
2023/10/05 20:48:22;;;;;;;2.83;1.00;;;;;;;14.31;79.61;152282.00;10547337;28;20044;-73
2023/10/05 20:53:24;;;;;;;1.15;0.85;;;;;;;14.23;79.26;152260.00;10546967;28;20095;-73
2023/10/05 20:58:26;;;;;;;2.38;1.05;;;;;;;14.45;77.54;152315.66;10547123;28;20139;-73
2023/10/05 21:03:28;;;;;;;1.45;1.00;;;;;;;14.47;76.91;152322.13;10549835;28;20131;-73
2023/10/05 21:08:34;;;;;;;2.20;1.10;;;;;;;14.56;75.57;152344.19;10546262;28;20044;-73
2023/10/05 21:13:36;;;;;;;2.87;1.20;;;;;;;14.32;77.69;152283.28;10546459;28;20040;-73
2023/10/05 21:18:37;;;;;;;2.53;1.30;;;;;;;14.33;77.09;152285.88;10548506;28;20089;-72
2023/10/05 21:23:39;;;;;;;1.55;0.88;;;;;;;14.45;76.19;152315.66;10544685;28;20093;-72
2023/10/05 21:28:41;;;;;;;1.80;0.88;;;;;;;14.45;75.83;152315.66;10546912;28;20040;-72
2023/10/05 21:33:43;;;;;;;2.15;1.10;;;;;;;14.39;76.48;152302.72;10547569;28;20044;-73
2023/10/05 21:38:45;;;;;;;2.08;1.10;;;;;;;14.31;76.63;152280.72;10577461;28;20115;-74
2023/10/05 21:43:48;;;;;;;2.53;1.23;;;;;;;14.65;73.70;152367.50;10547052;28;20407;-73
2023/10/05 21:48:50;;;;;;;1.92;1.00;;;;;;;14.30;76.15;152278.13;10546990;28;20585;-73
2023/10/05 21:53:52;;;;;;;2.88;1.10;;;;;;;14.30;75.85;152278.13;10545679;28;20044;-72
2023/10/05 21:58:54;;;;;;;1.65;1.10;;;;;;;14.43;75.06;152310.47;10545023;28;20089;-72
2023/10/05 22:03:56;;;;;;;2.65;0.90;;;;;;;14.31;75.68;152282.00;10546956;28;20048;-72
2023/10/05 22:08:58;;;;;;;1.88;0.95;;;;;;;14.16;76.20;152243.13;10544800;28;20051;-74
2023/10/05 22:14:00;;;;;;;1.83;1.23;;;;;;;14.10;76.67;152228.91;10546841;28;20418;-74
2023/10/05 22:19:03;;;;;;;2.75;1.05;;;;;;;14.10;76.91;152227.63;10544025;28;20044;-73
2023/10/05 22:24:05;;;;;;;2.42;1.33;;;;;;;14.21;76.19;152254.78;10545515;28;20044;-73
2023/10/05 22:29:07;;;;;;;2.78;1.33;;;;;;;14.35;75.14;152291.09;10543007;28;20067;-73
2023/10/05 22:34:10;;;;;;;2.55;1.13;;;;;;;14.49;74.44;152326.09;10543757;28;20067;-73
2023/10/05 22:39:12;;;;;;;1.85;1.13;;;;;;;14.41;74.56;152305.31;10540509;28;20066;-73
2023/10/05 22:44:13;;;;;;;2.85;1.20;;;;;;;14.45;74.67;152316.97;10525772;28;20531;-73
2023/10/05 22:49:15;;;;;;;1.75;1.08;;;;;;;14.50;73.87;152328.66;10541985;28;20114;-73
2023/10/05 22:54:17;;;;;;;2.83;1.45;;;;;;;14.55;73.70;152342.91;10543174;28;20139;-73
2023/10/05 22:59:19;;;;;;;3.05;1.02;;;;;;;14.55;73.13;152342.91;10541066;28;20515;-73
2023/10/05 23:04:21;;;;;;;2.85;1.33;;;;;;;14.61;72.65;152358.47;10542416;28;20068;-72
2023/10/05 23:09:23;;;;;;;2.53;1.27;;;;;;;14.63;73.08;152362.34;10543380;28;20063;-73
2023/10/05 23:14:25;;;;;;;2.95;1.30;;;;;;;14.63;73.12;152363.63;10541670;28;20052;-72
2023/10/05 23:19:27;;;;;;;3.50;1.02;;;;;;;14.60;73.69;152354.53;10541588;28;20086;-73
2023/10/05 23:24:30;;;;;;;1.95;0.85;;;;;;;14.50;74.57;152328.66;10541347;28;20048;-72
2023/10/05 23:29:33;;;;;;;2.70;0.95;;;;;;;14.56;74.28;152345.47;10542172;28;20110;-72
2023/10/05 23:34:38;;;;;;;1.58;1.45;;;;;;;14.59;74.21;152351.97;10522873;28;20063;-72
2023/10/05 23:39:40;;;;;;;3.38;1.27;;;;;;;14.60;73.94;152355.84;10541434;28;20040;-72
2023/10/05 23:44:46;;;;;;;3.35;1.48;;;;;;;14.56;74.41;152344.19;10540614;28;20392;-72